»·PEaware :: N732SG KSEE-KSBD

N732SG :: KSEE-KSBD

FLIGHT INFORMATION

Flight Status: Arrived
Operator: Privately registered:
United States
More flights under this callsign
Pilot: Scott G. (88)
Aircraft: CESSNA 172 SKYHAWK
(C172)
More flights by this aircraft type
Origin: KSEE Gillespie
United States
Destination: KSBD San Bernardino Intl
United States
More flights between these airports :: More routes between these airports
Route: OCN V23 DANAH V363 POXKU V8 PDZ
File this flight plan on PilotEdge
Remarks: X-Plane 11 crashing often, FYI.
Altitude:
(Current/Filed)
6,000ft
Speed:
(Current/Filed)
115kts
Departed: 01-Jul-17 01:17 PM
Arrived: 01-Jul-17 02:20 PM
Distance/Time
Traveled:
78nm/1:03
Distance/Time
To Go:
Arrived

Flight Plot

Page will automatically refresh every two minutes.


Map Options




Map Legend


Flown Route
Filed Route
Departure Airport
Arrival Airport
Navaid (VOR, NDB)
Fix

Horizontal Profiles

Position Reports

Time Latitude Longitude Heading Altitude Ground
Speed
01-Jul-17 12:40 32.824676 -116.970398 355 392ft 0kts
01-Jul-17 12:41 32.824676 -116.970398 355 392ft 0kts
01-Jul-17 12:42 32.824676 -116.970398 355 392ft 0kts
01-Jul-17 12:43 32.824676 -116.970398 355 392ft 0kts
01-Jul-17 12:44 32.824676 -116.970398 355 392ft 0kts
01-Jul-17 12:45 32.824676 -116.970398 355 392ft 0kts
01-Jul-17 12:46 32.824676 -116.970398 355 392ft 0kts
01-Jul-17 12:47 32.824676 -116.970398 355 392ft 0kts
01-Jul-17 12:48 32.824676 -116.970398 355 392ft 0kts
01-Jul-17 12:49 32.824676 -116.970398 355 392ft 0kts
01-Jul-17 12:50 32.824676 -116.970398 355 392ft 0kts
01-Jul-17 12:51 32.824676 -116.970398 355 392ft 0kts
01-Jul-17 12:52 32.824676 -116.970398 355 392ft 0kts
01-Jul-17 12:53 32.824676 -116.970398 355 392ft 0kts
01-Jul-17 12:54 32.824676 -116.970398 355 392ft 0kts
01-Jul-17 12:55 32.824676 -116.970398 355 392ft 0kts
01-Jul-17 12:56 32.824676 -116.970398 355 392ft 0kts
01-Jul-17 12:57 32.824676 -116.970398 355 392ft 0kts
01-Jul-17 12:58 32.824676 -116.970398 355 392ft 0kts
01-Jul-17 12:59 32.824676 -116.970398 355 392ft 0kts
01-Jul-17 13:00 32.824676 -116.970398 355 392ft 0kts
01-Jul-17 13:02 32.824676 -116.970398 355 392ft 0kts
01-Jul-17 13:03 32.824676 -116.970398 355 392ft 0kts
01-Jul-17 13:04 32.824605 -116.966559 96 392ft 14kts
01-Jul-17 13:05 32.824702 -116.966175 27 392ft 0kts
01-Jul-17 13:06 32.824702 -116.966175 27 392ft 0kts
01-Jul-17 13:07 32.824702 -116.966175 27 392ft 0kts
01-Jul-17 13:08 32.824702 -116.966175 27 392ft 0kts
01-Jul-17 13:09 32.824702 -116.966175 27 392ft 0kts
01-Jul-17 13:10 32.824702 -116.966175 27 392ft 0kts
01-Jul-17 13:11 32.824702 -116.966175 27 392ft 0kts
01-Jul-17 13:12 32.824702 -116.966175 27 392ft 0kts
01-Jul-17 13:13 32.824702 -116.966175 27 392ft 0kts
01-Jul-17 13:14 32.824702 -116.966175 27 392ft 0kts
01-Jul-17 13:15 32.824702 -116.966175 27 392ft 0kts
01-Jul-17 13:16 32.824702 -116.966175 27 392ft 0kts
01-Jul-17 13:17 32.824851 -116.966103 17 392ft 6kts
01-Jul-17 13:18 32.825561 -116.964078 307 392ft 0kts
01-Jul-17 13:19 32.825561 -116.964078 307 392ft 0kts
01-Jul-17 13:20 32.826960 -116.967174 284 392ft 58kts
01-Jul-17 13:21 32.835748 -116.983671 346 1222ft 67kts
01-Jul-17 13:22 32.855020 -116.987045 350 1961ft 77kts
01-Jul-17 13:23 32.876563 -116.990527 349 2745ft 81kts
01-Jul-17 13:24 32.899596 -116.993475 351 3504ft 84kts
01-Jul-17 13:25 32.922517 -116.998420 306 4224ft 81kts
01-Jul-17 13:26 32.936707 -117.019436 306 4901ft 85kts
01-Jul-17 13:27 32.952511 -117.041181 307 5479ft 92kts
01-Jul-17 13:28 32.970385 -117.064539 310 6000ft 99kts
01-Jul-17 13:29 32.991221 -117.090545 310 6063ft 113kts
01-Jul-17 13:30 33.012665 -117.118150 310 6057ft 114kts
01-Jul-17 13:31 33.020393 -117.128180 310 6056ft 113kts
01-Jul-17 13:32 33.028722 -117.139003 310 6054ft 113kts
01-Jul-17 13:33 33.049968 -117.166682 311 6051ft 113kts
01-Jul-17 13:34 33.071101 -117.194244 311 6048ft 112kts
01-Jul-17 13:35 33.080180 -117.206089 311 6058ft 111kts
01-Jul-17 13:36 33.098670 -117.230463 315 6034ft 115kts
01-Jul-17 13:37 33.120124 -117.258296 314 6033ft 116kts
01-Jul-17 13:38 33.141929 -117.286662 314 6032ft 116kts
01-Jul-17 13:39 33.163732 -117.315095 314 6032ft 116kts
01-Jul-17 13:40 33.185467 -117.343462 314 6032ft 116kts
01-Jul-17 13:41 33.207190 -117.371827 314 6032ft 116kts
01-Jul-17 13:42 33.228957 -117.400288 314 6032ft 116kts
01-Jul-17 13:43 33.251112 -117.428217 318 6032ft 115kts
01-Jul-17 13:44 33.267301 -117.446811 317 6032ft 116kts
01-Jul-17 13:45 33.290410 -117.473579 317 6032ft 116kts
01-Jul-17 13:46 33.313575 -117.500540 317 6032ft 116kts
01-Jul-17 13:47 33.336674 -117.527471 317 6032ft 116kts
01-Jul-17 13:48 33.354725 -117.548535 317 6032ft 116kts
01-Jul-17 13:49 33.377800 -117.575471 317 6033ft 116kts
01-Jul-17 13:50 33.400968 -117.602558 317 6032ft 116kts
01-Jul-17 13:51 33.424773 -117.628601 325 6034ft 114kts
01-Jul-17 13:52 33.450000 -117.642671 337 6032ft 114kts
01-Jul-17 13:53 33.479915 -117.655049 338 6036ft 115kts
01-Jul-17 13:54 33.507970 -117.665974 338 6037ft 117kts
01-Jul-17 13:55 33.539116 -117.677857 338 6039ft 119kts
01-Jul-17 13:56 33.570513 -117.689748 339 6040ft 121kts
01-Jul-17 13:57 33.602825 -117.701951 339 6042ft 123kts
01-Jul-17 13:58 33.635259 -117.714502 340 6035ft 123kts
01-Jul-17 13:59 33.667968 -117.726525 339 6037ft 123kts
01-Jul-17 14:00 33.699931 -117.740735 335 6035ft 122kts
01-Jul-17 14:01 33.731638 -117.755573 335 6034ft 122kts
01-Jul-17 14:02 33.763378 -117.770517 335 6034ft 122kts
01-Jul-17 14:03 33.796189 -117.779252 355 6033ft 123kts
01-Jul-17 14:04 33.830116 -117.780151 356 6030ft 121kts
01-Jul-17 14:05 33.856319 -117.764007 71 6027ft 122kts
01-Jul-17 14:06 33.867302 -117.725429 72 6022ft 122kts
01-Jul-17 14:07 33.877353 -117.687449 74 6020ft 122kts
01-Jul-17 14:08 33.887314 -117.648454 73 6017ft 122kts
01-Jul-17 14:09 33.897360 -117.609360 75 6015ft 122kts
01-Jul-17 14:10 33.906137 -117.574875 73 6014ft 122kts
01-Jul-17 14:11 33.915822 -117.536845 75 6014ft 122kts
01-Jul-17 14:12 33.934129 -117.502277 55 6016ft 123kts
01-Jul-17 14:13 33.954485 -117.468383 54 5659ft 126kts
01-Jul-17 14:14 33.974804 -117.434431 53 4866ft 124kts
01-Jul-17 14:15 33.993926 -117.401014 54 4138ft 115kts
01-Jul-17 14:16 34.009849 -117.372987 54 4063ft 98kts
01-Jul-17 14:17 34.029700 -117.351506 36 3718ft 93kts
01-Jul-17 14:18 34.049382 -117.332777 36 3268ft 91kts
01-Jul-17 14:19 34.066714 -117.315746 47 2817ft 91kts
01-Jul-17 14:20 34.079476 -117.291080 70 2253ft 78kts
01-Jul-17 14:21 34.085882 -117.266528 69 1478ft 73kts
01-Jul-17 14:22 34.092052 -117.245773 70 1161ft 48kts
01-Jul-17 14:23 34.094335 -117.242030 359 1161ft 0kts
01-Jul-17 14:24 34.094470 -117.242029 0 1161ft 6kts
01-Jul-17 14:25 34.098915 -117.241988 357 1161ft 23kts
01-Jul-17 14:26 34.103590 -117.245560 321 1161ft 16kts
01-Jul-17 14:27 34.104161 -117.245917 353 1161ft 0kts

Navigation Log

Ident Type
Flight plan parsing failed, navigation log unavailable